Back to Top

Language: 

My Weather Underground Personal Weather Station Historical Data with Graphs...

Delerius Weather Station Historical Data
Daily Summary for March 11, 2017 Units:  English    Metric   Both
« Previous Day
Next Day »
Daily Weekly Monthly Yearly Custom
  High: Low: Average:
Temperature: 56.1 °F 48.5 °F 52.2 °F
Dew Point: 51.3 °F 44.9 °F 48.6 °F
Humidity: 94 % 78 % 88 %
Wind Speed: 9.0 mph 0.0 mph 4.3 mph
Wind Gust: 13.0 mph - -
Wind:- - South
Pressure: 30.10 in 29.89 in -
Precipitation: 0.01 in    
Historical Graphs
 
 
Tabular Data for March 11, 2017
Time Temperature Dew Point Pressure Wind Wind Speed Wind Gust Humidity Rainfall Rate (Hourly) solar Conditions
00:00 49.6 °F 47.7 °F 30.10 in SE 3.0 mph 3.0 mph 93 % 0.00 in 0 W/m2
00:05 49.6 °F 47.7 °F 30.10 in SE 4.0 mph 4.0 mph 93 % 0.00 in 0 W/m2
00:15 49.7 °F 48.0 °F 30.10 in SE 4.0 mph 6.0 mph 94 % 0.00 in 0 W/m2
00:20 49.7 °F 48.0 °F 30.10 in South 4.0 mph 4.0 mph 94 % 0.00 in 0 W/m2
00:25 49.8 °F 48.1 °F 30.10 in SE 4.0 mph 4.0 mph 94 % 0.00 in 0 W/m2
00:30 49.8 °F 48.1 °F 30.09 in SE 4.0 mph 5.0 mph 94 % 0.00 in 0 W/m2
00:35 49.9 °F 48.2 °F 30.09 in SSE 5.0 mph 5.0 mph 94 % 0.00 in 0 W/m2
00:40 49.9 °F 48.2 °F 30.09 in SSE 6.0 mph 6.0 mph 94 % 0.00 in 0 W/m2
00:45 49.9 °F 48.2 °F 30.09 in SE 6.0 mph 6.0 mph 94 % 0.00 in 0 W/m2
00:50 49.9 °F 48.2 °F 30.09 in ESE 5.0 mph 5.0 mph 94 % 0.00 in 0 W/m2
00:55 49.8 °F 48.1 °F 30.08 in SE 4.0 mph 5.0 mph 94 % 0.00 in 0 W/m2
01:05 49.7 °F 48.0 °F 30.09 in ESE 5.0 mph 8.0 mph 94 % 0.00 in 0 W/m2
01:10 49.7 °F 48.0 °F 30.09 in East 4.0 mph 4.0 mph 94 % 0.00 in 0 W/m2
01:15 49.6 °F 47.9 °F 30.08 in East 3.0 mph 8.0 mph 94 % 0.00 in 0 W/m2
01:20 49.6 °F 47.9 °F 30.09 in East 3.0 mph 3.0 mph 94 % 0.00 in 0 W/m2
01:30 49.5 °F 47.8 °F 30.08 in ESE 4.0 mph 8.0 mph 94 % 0.00 in 0 W/m2
01:40 49.3 °F 47.6 °F 30.08 in ESE 4.0 mph 8.0 mph 94 % 0.00 in 0 W/m2
01:45 49.2 °F 47.5 °F 30.08 in ESE 4.0 mph 8.0 mph 94 % 0.00 in 0 W/m2
01:50 49.2 °F 47.5 °F 30.08 in SE 4.0 mph 8.0 mph 94 % 0.00 in 0 W/m2
01:55 49.1 °F 47.4 °F 30.08 in South 4.0 mph 8.0 mph 94 % 0.00 in 0 W/m2
02:00 49.1 °F 47.4 °F 30.08 in South 3.0 mph 3.0 mph 94 % 0.00 in 0 W/m2
02:05 49.1 °F 47.4 °F 30.07 in SSW 4.0 mph 4.0 mph 94 % 0.00 in 0 W/m2
02:15 49.1 °F 47.4 °F 30.07 in South 6.0 mph 8.0 mph 94 % 0.00 in 0 W/m2
02:20 49.2 °F 47.3 °F 30.06 in South 6.0 mph 6.0 mph 93 % 0.00 in 0 W/m2
02:25 49.2 °F 47.3 °F 30.06 in SW 4.0 mph 8.0 mph 93 % 0.00 in 0 W/m2
02:30 49.2 °F 47.3 °F 30.06 in SSW 3.0 mph 8.0 mph 93 % 0.00 in 0 W/m2
02:35 49.3 °F 47.4 °F 30.06 in South 3.0 mph 10.0 mph 93 % 0.00 in 0 W/m2
02:45 49.5 °F 47.3 °F 30.06 in South 4.0 mph 9.0 mph 92 % 0.00 in 0 W/m2
02:50 49.6 °F 47.4 °F 30.06 in South 4.0 mph 8.0 mph 92 % 0.00 in 0 W/m2
02:55 49.6 °F 47.1 °F 30.06 in SSW 5.0 mph 8.0 mph 91 % 0.00 in 0 W/m2
03:05 49.4 °F 46.0 °F 30.06 in SSW 9.0 mph 13.0 mph 88 % 0.00 in 0 W/m2
03:10 49.4 °F 45.7 °F 30.06 in SSW 9.0 mph 9.0 mph 87 % 0.00 in 0 W/m2
03:15 49.3 °F 45.3 °F 30.05 in SSW 8.0 mph 9.0 mph 86 % 0.00 in 0 W/m2
03:20 49.3 °F 45.3 °F 30.05 in SSW 5.0 mph 5.0 mph 86 % 0.00 in 0 W/m2
03:25 49.1 °F 45.1 °F 30.05 in SSW 3.0 mph 8.0 mph 86 % 0.00 in 0 W/m2
03:30 49.0 °F 45.0 °F 30.05 in West 3.0 mph 8.0 mph 86 % 0.00 in 0 W/m2
03:35 49.0 °F 45.0 °F 30.05 in SW 4.0 mph 8.0 mph 86 % 0.00 in 0 W/m2
03:40 48.9 °F 44.9 °F 30.05 in WSW 5.0 mph 8.0 mph 86 % 0.00 in 0 W/m2
03:45 49.0 °F 45.0 °F 30.05 in SSW 4.0 mph 8.0 mph 86 % 0.00 in 0 W/m2
03:55 49.0 °F 45.3 °F 30.05 in WSW 2.0 mph 8.0 mph 87 % 0.00 in 0 W/m2
04:00 49.0 °F 45.3 °F 30.05 in SW 3.0 mph 3.0 mph 87 % 0.00 in 0 W/m2
04:05 48.9 °F 45.2 °F 30.05 in WSW 3.0 mph 4.0 mph 87 % 0.00 in 0 W/m2
04:15 48.9 °F 45.2 °F 30.04 in SW 6.0 mph 8.0 mph 87 % 0.00 in 0 W/m2
04:20 48.9 °F 45.2 °F 30.04 in WSW 5.0 mph 5.0 mph 87 % 0.00 in 0 W/m2
04:30 49.0 °F 45.6 °F 30.04 in SW 6.0 mph 8.0 mph 88 % 0.00 in 0 W/m2
04:35 49.0 °F 45.6 °F 30.04 in SW 6.0 mph 8.0 mph 88 % 0.00 in 0 W/m2
04:40 49.0 °F 45.6 °F 30.04 in SW 7.0 mph 8.0 mph 88 % 0.00 in 0 W/m2
04:45 48.9 °F 45.5 °F 30.04 in SSW 7.0 mph 8.0 mph 88 % 0.00 in 0 W/m2
04:50 48.9 °F 45.5 °F 30.04 in SW 7.0 mph 8.0 mph 88 % 0.00 in 0 W/m2
05:00 48.9 °F 45.5 °F 30.04 in SW 5.0 mph 8.0 mph 88 % 0.00 in 0 W/m2
05:05 48.8 °F 45.4 °F 30.04 in SW 5.0 mph 8.0 mph 88 % 0.00 in 0 W/m2
05:10 48.9 °F 45.5 °F 30.04 in SW 6.0 mph 8.0 mph 88 % 0.00 in 0 W/m2
05:15 48.9 °F 45.5 °F 30.03 in SSW 5.0 mph 8.0 mph 88 % 0.00 in 0 W/m2
05:20 48.9 °F 45.8 °F 30.03 in SSW 4.0 mph 4.0 mph 89 % 0.00 in 0 W/m2
05:25 48.8 °F 45.7 °F 30.03 in SSW 2.0 mph 8.0 mph 89 % 0.00 in 0 W/m2
05:35 48.9 °F 45.8 °F 30.03 in South 2.0 mph 8.0 mph 89 % 0.00 in 0 W/m2
05:45 48.8 °F 45.7 °F 30.03 in SSW 3.0 mph 8.0 mph 89 % 0.00 in 0 W/m2
05:50 48.8 °F 45.7 °F 30.03 in SW 5.0 mph 9.0 mph 89 % 0.00 in 0 W/m2
05:55 48.8 °F 45.7 °F 30.03 in SSW 6.0 mph 9.0 mph 89 % 0.00 in 0 W/m2
06:00 48.8 °F 45.7 °F 30.03 in SW 7.0 mph 7.0 mph 89 % 0.00 in 0 W/m2
06:10 48.7 °F 45.6 °F 30.02 in SSW 7.0 mph 7.0 mph 89 % 0.00 in 0 W/m2
06:15 48.7 °F 45.6 °F 30.02 in SSW 7.0 mph 8.0 mph 89 % 0.00 in 0 W/m2
06:20 48.6 °F 45.5 °F 30.02 in SSW 7.0 mph 8.0 mph 89 % 0.00 in 0 W/m2
06:25 48.6 °F 45.5 °F 30.02 in SSW 7.0 mph 8.0 mph 89 % 0.00 in 0 W/m2
06:30 48.6 °F 45.5 °F 30.02 in SSW 6.0 mph 6.0 mph 89 % 0.00 in 0 W/m2
06:40 48.6 °F 45.5 °F 30.02 in South 7.0 mph 7.0 mph 89 % 0.00 in 5 W/m2
06:45 48.6 °F 45.5 °F 30.02 in SSW 7.0 mph 8.0 mph 89 % 0.00 in 7 W/m2
06:50 48.6 °F 45.5 °F 30.02 in SSW 6.0 mph 8.0 mph 89 % 0.00 in 9 W/m2
07:00 48.5 °F 45.4 °F 30.03 in SSW 7.0 mph 7.0 mph 89 % 0.00 in 18 W/m2
07:05 48.5 °F 45.4 °F 30.03 in SSW 7.0 mph 8.0 mph 89 % 0.00 in 21 W/m2
07:15 48.7 °F 45.6 °F 30.03 in South 8.0 mph 12.0 mph 89 % 0.00 in 33 W/m2
07:20 48.7 °F 45.6 °F 30.03 in South 8.0 mph 8.0 mph 89 % 0.00 in 39 W/m2
07:25 48.8 °F 45.7 °F 30.03 in South 7.0 mph 8.0 mph 89 % 0.00 in 44 W/m2
07:30 48.8 °F 45.7 °F 30.03 in SW 7.0 mph 8.0 mph 89 % 0.00 in 49 W/m2
07:35 48.8 °F 45.7 °F 30.02 in South 6.0 mph 8.0 mph 89 % 0.00 in 56 W/m2
07:40 48.8 °F 45.7 °F 30.02 in South 4.0 mph 4.0 mph 89 % 0.00 in 58 W/m2
07:50 48.8 °F 46.0 °F 30.01 in South 3.0 mph 8.0 mph 90 % 0.00 in 62 W/m2
07:55 48.8 °F 46.0 °F 30.01 in South 4.0 mph 8.0 mph 90 % 0.00 in 65 W/m2
08:00 48.8 °F 46.0 °F 30.01 in SSE 4.0 mph 4.0 mph 90 % 0.00 in 69 W/m2
08:05 48.9 °F 46.1 °F 30.01 in SE 4.0 mph 6.0 mph 90 % 0.00 in 76 W/m2
08:10 48.9 °F 46.1 °F 30.02 in West 4.0 mph 4.0 mph 90 % 0.00 in 70 W/m2
08:20 49.1 °F 46.3 °F 30.02 in SSW 5.0 mph 11.0 mph 90 % 0.00 in 65 W/m2
08:25 49.2 °F 46.4 °F 30.02 in SW 6.0 mph 11.0 mph 90 % 0.00 in 62 W/m2
08:35 49.3 °F 46.5 °F 30.02 in WSW 3.0 mph 8.0 mph 90 % 0.00 in 56 W/m2
08:40 49.4 °F 46.6 °F 30.02 in WSW 1.0 mph 8.0 mph 90 % 0.00 in 63 W/m2
08:45 49.5 °F 46.7 °F 30.02 in SSE 1.0 mph 8.0 mph 90 % 0.00 in 69 W/m2
08:55 49.6 °F 46.8 °F 30.02 in SSE 1.0 mph 5.0 mph 90 % 0.00 in 74 W/m2
09:00 49.7 °F 46.9 °F 30.02 in SW 2.0 mph 2.0 mph 90 % 0.00 in 62 W/m2
09:05 49.9 °F 47.1 °F 30.02 in SSE 2.0 mph 8.0 mph 90 % 0.00 in 58 W/m2
09:10 50.0 °F 47.2 °F 30.02 in ESE 2.0 mph 8.0 mph 90 % 0.00 in 56 W/m2
09:15 50.1 °F 47.3 °F 30.02 in SSE 3.0 mph 8.0 mph 90 % 0.00 in 70 W/m2
09:20 50.3 °F 47.5 °F 30.02 in South 5.0 mph 5.0 mph 90 % 0.00 in 63 W/m2
09:30 50.5 °F 47.4 °F 30.02 in SE 3.0 mph 3.0 mph 89 % 0.00 in 58 W/m2
09:35 50.6 °F 47.5 °F 30.02 in SE 3.0 mph 4.0 mph 89 % 0.00 in 58 W/m2
09:40 50.7 °F 47.6 °F 30.01 in SE 3.0 mph 3.0 mph 89 % 0.00 in 62 W/m2
09:50 50.9 °F 47.5 °F 30.01 in South 5.0 mph 5.0 mph 88 % 0.00 in 69 W/m2
09:55 51.0 °F 47.6 °F 30.01 in SE 5.0 mph 8.0 mph 88 % 0.00 in 72 W/m2
10:05 51.2 °F 47.8 °F 30.01 in South 3.0 mph 8.0 mph 88 % 0.00 in 81 W/m2
10:10 51.3 °F 47.9 °F 30.01 in South 3.0 mph 8.0 mph 88 % 0.00 in 72 W/m2
10:15 51.4 °F 48.0 °F 30.01 in South 1.0 mph 8.0 mph 88 % 0.00 in 72 W/m2
10:20 51.5 °F 48.1 °F 30.01 in South 1.0 mph 8.0 mph 88 % 0.00 in 69 W/m2
10:25 51.6 °F 47.9 °F 30.01 in South 2.0 mph 8.0 mph 87 % 0.00 in 72 W/m2
10:30 51.7 °F 48.0 °F 30.01 in SSE 2.0 mph 2.0 mph 87 % 0.00 in 84 W/m2
10:35 51.8 °F 47.7 °F 30.01 in Calm   4.0 mph 86 % 0.00 in 98 W/m2
10:40 51.9 °F 47.8 °F 30.01 in SSE 1.0 mph 1.0 mph 86 % 0.00 in 118 W/m2
10:45 52.0 °F 47.9 °F 30.01 in SSW 1.0 mph 5.0 mph 86 % 0.00 in 141 W/m2
10:50 52.2 °F 48.1 °F 30.01 in SSW 2.0 mph 8.0 mph 86 % 0.00 in 167 W/m2
10:55 52.4 °F 48.3 °F 30.02 in SW 4.0 mph 8.0 mph 86 % 0.00 in 206 W/m2
11:00 52.6 °F 48.5 °F 30.02 in SSW 6.0 mph 6.0 mph 86 % 0.00 in 195 W/m2
11:10 53.0 °F 48.6 °F 30.01 in West 4.0 mph 8.0 mph 85 % 0.00 in 206 W/m2
11:20 53.4 °F 48.7 °F 30.01 in WSW 5.0 mph 8.0 mph 84 % 0.00 in 213 W/m2
11:25 53.5 °F 48.5 °F 30.01 in WSW 6.0 mph 8.0 mph 83 % 0.00 in 223 W/m2
11:30 53.7 °F 48.7 °F 30.01 in SSW 6.0 mph 8.0 mph 83 % 0.00 in 255 W/m2
11:35 53.8 °F 48.8 °F 30.01 in SSW 6.0 mph 8.0 mph 83 % 0.00 in 258 W/m2
11:45 54.1 °F 48.7 °F 30.01 in WSW 7.0 mph 9.0 mph 82 % 0.00 in 241 W/m2
11:50 54.3 °F 48.9 °F 30.01 in SW 7.0 mph 10.0 mph 82 % 0.00 in 218 W/m2
11:55 54.3 °F 48.6 °F 30.01 in SW 7.0 mph 10.0 mph 81 % 0.00 in 172 W/m2
12:00 54.3 °F 48.9 °F 30.01 in SSW 5.0 mph 8.0 mph 82 % 0.00 in 197 W/m2
12:05 54.4 °F 48.7 °F 30.01 in SSW 4.0 mph 8.0 mph 81 % 0.00 in 178 W/m2
12:15 54.7 °F 49.0 °F 30.01 in SSW 4.0 mph 8.0 mph 81 % 0.00 in 167 W/m2
12:25 54.8 °F 49.1 °F 30.01 in WSW 2.0 mph 8.0 mph 81 % 0.00 in 156 W/m2
12:30 54.9 °F 49.2 °F 30.01 in WSW 2.0 mph 2.0 mph 81 % 0.00 in 148 W/m2
12:35 55.0 °F 48.9 °F 30.01 in WSW 4.0 mph 4.0 mph 80 % 0.00 in 149 W/m2
12:40 55.0 °F 48.9 °F 30.00 in SSW 4.0 mph 8.0 mph 80 % 0.00 in 181 W/m2
12:50 55.1 °F 49.0 °F 30.00 in SW 3.0 mph 3.0 mph 80 % 0.00 in 176 W/m2
12:55 55.2 °F 49.1 °F 30.00 in SW 3.0 mph 5.0 mph 80 % 0.00 in 181 W/m2
13:00 55.3 °F 48.9 °F 30.00 in SSW 4.0 mph 4.0 mph 79 % 0.00 in 149 W/m2
13:05 55.4 °F 49.0 °F 30.00 in SSW 3.0 mph 8.0 mph 79 % 0.00 in 174 W/m2
13:10 55.5 °F 49.1 °F 30.00 in SSW 1.0 mph 8.0 mph 79 % 0.00 in 172 W/m2
13:15 55.6 °F 49.2 °F 29.99 in Calm   8.0 mph 79 % 0.00 in 142 W/m2
13:25 55.9 °F 49.1 °F 29.99 in SSW 1.0 mph 8.0 mph 78 % 0.00 in 116 W/m2
13:30 55.9 °F 49.1 °F 29.99 in SSW 1.0 mph 8.0 mph 78 % 0.00 in 113 W/m2
13:35 55.9 °F 49.1 °F 29.99 in SSE 2.0 mph 8.0 mph 78 % 0.00 in 98 W/m2
13:40 55.9 °F 49.1 °F 29.99 in SSE 2.0 mph 8.0 mph 78 % 0.00 in 128 W/m2
13:50 55.9 °F 49.5 °F 29.98 in SSW 2.0 mph 2.0 mph 79 % 0.00 in 127 W/m2
14:00 55.9 °F 49.1 °F 29.99 in SSW 4.0 mph 4.0 mph 78 % 0.00 in 72 W/m2
14:05 55.9 °F 49.1 °F 29.98 in SSW 4.0 mph 5.0 mph 78 % 0.00 in 79 W/m2
14:10 55.8 °F 49.0 °F 29.98 in SSE 3.0 mph 8.0 mph 78 % 0.00 in 86 W/m2
14:30 55.9 °F 49.5 °F 29.98 in SSW 4.0 mph 4.0 mph 79 % 0.00 in 79 W/m2
14:35 55.9 °F 49.5 °F 29.97 in SSW 3.0 mph 5.0 mph 79 % 0.00 in 60 W/m2
14:40 55.8 °F 49.4 °F 29.98 in SSW 3.0 mph 4.0 mph 79 % 0.00 in 54 W/m2
14:45 55.8 °F 49.4 °F 29.97 in SSW 3.0 mph 4.0 mph 79 % 0.00 in 53 W/m2
14:55 55.8 °F 49.4 °F 29.97 in SSW 5.0 mph 7.0 mph 79 % 0.00 in 76 W/m2
15:00 55.7 °F 49.3 °F 29.97 in SW 5.0 mph 5.0 mph 79 % 0.00 in 113 W/m2
15:10 55.9 °F 49.5 °F 29.96 in SW 5.0 mph 5.0 mph 79 % 0.00 in 130 W/m2
15:15 56.0 °F 49.6 °F 29.97 in SW 5.0 mph 5.0 mph 79 % 0.00 in 113 W/m2
15:20 56.0 °F 49.6 °F 29.97 in SSW 4.0 mph 4.0 mph 79 % 0.00 in 104 W/m2
15:25 56.1 °F 49.7 °F 29.97 in SW 3.0 mph 8.0 mph 79 % 0.00 in 91 W/m2
15:30 56.1 °F 49.3 °F 29.97 in SW 3.0 mph 8.0 mph 78 % 0.00 in 58 W/m2
15:35 56.1 °F 49.3 °F 29.97 in SW 4.0 mph 8.0 mph 78 % 0.00 in 39 W/m2
15:40 56.1 °F 49.7 °F 29.96 in SW 2.0 mph 2.0 mph 79 % 0.00 in 37 W/m2
15:45 56.0 °F 49.6 °F 29.97 in SW 2.0 mph 4.0 mph 79 % 0.00 in 30 W/m2
15:50 56.0 °F 49.6 °F 29.96 in SW 3.0 mph 8.0 mph 79 % 0.00 in 30 W/m2
16:00 55.9 °F 49.5 °F 29.95 in SSW 2.0 mph 8.0 mph 79 % 0.00 in 33 W/m2
16:05 55.9 °F 49.8 °F 29.95 in SSE 3.0 mph 8.0 mph 80 % 0.00 in 37 W/m2
16:15 55.9 °F 50.2 °F 29.95 in South 3.0 mph 8.0 mph 81 % 0.00 in 19 W/m2
16:20 55.8 °F 50.1 °F 29.95 in South 2.0 mph 8.0 mph 81 % 0.00 in 21 W/m2
16:25 55.8 °F 50.4 °F 29.96 in South 2.0 mph 8.0 mph 82 % 0.00 in 28 W/m2
16:30 55.8 °F 50.4 °F 29.96 in South 2.0 mph 2.0 mph 82 % 0.00 in 21 W/m2
16:35 55.7 °F 50.3 °F 29.96 in South 2.0 mph 8.0 mph 82 % 0.00 in 25 W/m2
16:40 55.7 °F 50.3 °F 29.95 in South 2.0 mph 2.0 mph 82 % 0.00 in 32 W/m2
16:50 55.6 °F 50.5 °F 29.95 in Calm   8.0 mph 83 % 0.00 in 21 W/m2
16:55 55.6 °F 50.5 °F 29.95 in South 1.0 mph 8.0 mph 83 % 0.00 in 16 W/m2
17:00 55.6 °F 50.5 °F 29.95 in South 2.0 mph 8.0 mph 83 % 0.00 in 18 W/m2
17:10 55.5 °F 50.4 °F 29.95 in SSE 3.0 mph 3.0 mph 83 % 0.00 in 23 W/m2
17:15 55.5 °F 50.4 °F 29.95 in South 3.0 mph 4.0 mph 83 % 0.00 in 37 W/m2
17:20 55.5 °F 50.7 °F 29.95 in SSE 2.0 mph 2.0 mph 84 % 0.00 in 44 W/m2
17:25 55.4 °F 50.6 °F 29.95 in SSE 2.0 mph 4.0 mph 84 % 0.00 in 40 W/m2
17:30 55.4 °F 50.6 °F 29.95 in South 2.0 mph 2.0 mph 84 % 0.00 in 33 W/m2
17:35 55.4 °F 50.6 °F 29.95 in South 3.0 mph 4.0 mph 84 % 0.00 in 21 W/m2
17:40 55.4 °F 50.6 °F 29.95 in SSE 3.0 mph 8.0 mph 84 % 0.00 in 14 W/m2
17:45 55.4 °F 50.6 °F 29.95 in SSE 4.0 mph 8.0 mph 84 % 0.00 in 11 W/m2
17:55 55.2 °F 50.8 °F 29.95 in SSE 5.0 mph 8.0 mph 85 % 0.00 in 5 W/m2
18:00 55.1 °F 51.0 °F 29.95 in SSE 5.0 mph 5.0 mph 86 % 0.00 in 0 W/m2
18:10 54.9 °F 50.8 °F 29.95 in SSE 5.0 mph 8.0 mph 86 % 0.00 in 0 W/m2
18:15 54.9 °F 51.1 °F 29.95 in SE 5.0 mph 8.0 mph 87 % 0.00 in 0 W/m2
18:20 54.8 °F 51.0 °F 29.95 in SSE 5.0 mph 8.0 mph 87 % 0.00 in 0 W/m2
18:30 54.7 °F 50.9 °F 29.95 in SE 5.0 mph 5.0 mph 87 % 0.00 in 0 W/m2
18:35 54.6 °F 50.8 °F 29.95 in SSE 4.0 mph 8.0 mph 87 % 0.00 in 0 W/m2
18:40 54.6 °F 51.1 °F 29.95 in SSE 4.0 mph 8.0 mph 88 % 0.00 in 0 W/m2
18:45 54.5 °F 51.0 °F 29.96 in SSE 5.0 mph 8.0 mph 88 % 0.00 in 0 W/m2
18:50 54.4 °F 50.9 °F 29.95 in SE 5.0 mph 8.0 mph 88 % 0.00 in 0 W/m2
18:55 54.4 °F 50.9 °F 29.95 in SE 6.0 mph 8.0 mph 88 % 0.00 in 0 W/m2
19:05 54.3 °F 51.1 °F 29.95 in SE 5.0 mph 8.0 mph 89 % 0.00 in 0 W/m2
19:15 54.2 °F 51.0 °F 29.95 in SSE 5.0 mph 8.0 mph 89 % 0.00 in 0 W/m2
19:20 54.2 °F 51.0 °F 29.95 in SSE 5.0 mph 8.0 mph 89 % 0.00 in 0 W/m2
19:25 54.1 °F 50.9 °F 29.95 in SSE 4.0 mph 8.0 mph 89 % 0.00 in 0 W/m2
19:30 54.1 °F 50.9 °F 29.95 in SE 4.0 mph 8.0 mph 89 % 0.00 in 0 W/m2
19:35 54.0 °F 50.8 °F 29.95 in SE 4.0 mph 8.0 mph 89 % 0.00 in 0 W/m2
19:40 54.0 °F 50.8 °F 29.95 in SE 5.0 mph 5.0 mph 89 % 0.00 in 0 W/m2
19:45 54.0 °F 50.8 °F 29.95 in SSE 5.0 mph 8.0 mph 89 % 0.00 in 0 W/m2
19:50 54.0 °F 50.8 °F 29.95 in ESE 4.0 mph 4.0 mph 89 % 0.00 in 0 W/m2
19:55 53.9 °F 51.0 °F 29.95 in SE 3.0 mph 8.0 mph 90 % 0.00 in 0 W/m2
20:00 53.9 °F 51.0 °F 29.95 in SE 2.0 mph 2.0 mph 90 % 0.00 in 0 W/m2
20:10 53.8 °F 50.9 °F 29.94 in ESE 3.0 mph 8.0 mph 90 % 0.00 in 0 W/m2
20:15 53.8 °F 50.9 °F 29.94 in SE 3.0 mph 8.0 mph 90 % 0.00 in 0 W/m2
20:20 53.8 °F 50.9 °F 29.94 in SSE 5.0 mph 8.0 mph 90 % 0.00 in 0 W/m2
20:25 53.7 °F 50.8 °F 29.94 in SE 5.0 mph 8.0 mph 90 % 0.00 in 0 W/m2
20:30 53.7 °F 51.1 °F 29.94 in SSE 5.0 mph 5.0 mph 91 % 0.00 in 0 W/m2
20:35 53.6 °F 51.0 °F 29.94 in SSE 5.0 mph 8.0 mph 91 % 0.00 in 0 W/m2
20:45 53.6 °F 51.0 °F 29.94 in SE 6.0 mph 7.0 mph 91 % 0.00 in 0 W/m2
20:50 53.5 °F 50.9 °F 29.93 in SE 6.0 mph 6.0 mph 91 % 0.00 in 0 W/m2
20:55 53.5 °F 50.9 °F 29.93 in SE 6.0 mph 10.0 mph 91 % 0.00 in 0 W/m2
21:00 53.5 °F 51.2 °F 29.93 in SSE 7.0 mph 7.0 mph 92 % 0.00 in 0 W/m2
21:05 53.4 °F 51.1 °F 29.93 in SE 7.0 mph 8.0 mph 92 % 0.00 in 0 W/m2
21:15 53.4 °F 51.1 °F 29.93 in SSE 7.0 mph 9.0 mph 92 % 0.00 in 0 W/m2
21:20 53.4 °F 51.1 °F 29.93 in SE 7.0 mph 8.0 mph 92 % 0.00 in 0 W/m2
21:25 53.4 °F 51.1 °F 29.93 in SE 6.0 mph 8.0 mph 92 % 0.00 in 0 W/m2
21:30 53.3 °F 51.0 °F 29.93 in SE 6.0 mph 8.0 mph 92 % 0.00 in 0 W/m2
21:35 53.3 °F 51.0 °F 29.93 in SE 6.0 mph 8.0 mph 92 % 0.00 in 0 W/m2
21:40 53.2 °F 51.2 °F 29.92 in SE 6.0 mph 8.0 mph 93 % 0.00 in 0 W/m2
21:45 53.2 °F 51.2 °F 29.92 in SE 7.0 mph 8.0 mph 93 % 0.00 in 0 W/m2
21:55 53.1 °F 51.1 °F 29.92 in SE 6.0 mph 9.0 mph 93 % 0.00 in 0 W/m2
22:00 53.1 °F 51.1 °F 29.92 in SSE 6.0 mph 6.0 mph 93 % 0.00 in 0 W/m2
22:05 53.1 °F 51.1 °F 29.92 in SE 6.0 mph 7.0 mph 93 % 0.00 in 0 W/m2
22:10 53.1 °F 51.1 °F 29.92 in SE 5.0 mph 5.0 mph 93 % 0.00 in 0 W/m2
22:15 53.1 °F 51.1 °F 29.92 in SE 5.0 mph 6.0 mph 93 % 0.00 in 0 W/m2
22:25 53.1 °F 51.1 °F 29.92 in SE 5.0 mph 8.0 mph 93 % 0.00 in 0 W/m2
22:30 53.1 °F 51.1 °F 29.92 in ESE 5.0 mph 8.0 mph 93 % 0.00 in 0 W/m2
22:35 53.1 °F 51.1 °F 29.92 in South 5.0 mph 8.0 mph 93 % 0.00 in 0 W/m2
22:40 53.2 °F 51.2 °F 29.91 in SSE 6.0 mph 6.0 mph 93 % 0.00 in 0 W/m2
22:45 53.3 °F 51.3 °F 29.91 in South 6.0 mph 8.0 mph 93 % 0.00 in 0 W/m2
22:50 53.3 °F 51.3 °F 29.91 in SSE 5.0 mph 5.0 mph 93 % 0.00 in 0 W/m2
23:00 53.3 °F 51.3 °F 29.91 in SSE 5.0 mph 8.0 mph 93 % 0.00 in 0 W/m2
23:05 53.3 °F 51.3 °F 29.91 in SSE 5.0 mph 9.0 mph 93 % 0.00 in 0 W/m2
23:10 53.3 °F 51.3 °F 29.91 in SSE 6.0 mph 8.0 mph 93 % 0.00 in 0 W/m2
23:15 53.3 °F 51.3 °F 29.90 in SE 6.0 mph 8.0 mph 93 % 0.00 in 0 W/m2
23:20 53.3 °F 51.3 °F 29.90 in SE 7.0 mph 12.0 mph 93 % 0.00 in 0 W/m2
23:25 53.2 °F 51.2 °F 29.90 in SSW 7.0 mph 12.0 mph 93 % 0.00 in 0 W/m2
23:30 53.3 °F 51.3 °F 29.89 in South 6.0 mph 6.0 mph 93 % 0.00 in 0 W/m2
23:35 53.2 °F 51.2 °F 29.89 in SE 5.0 mph 8.0 mph 93 % 0.00 in 0 W/m2
23:40 53.2 °F 51.2 °F 29.89 in SSE 3.0 mph 3.0 mph 93 % 0.00 in 0 W/m2
23:45 53.1 °F 51.1 °F 29.89 in SSE 2.0 mph 8.0 mph 93 % 0.00 in 0 W/m2
23:50 53.1 °F 51.1 °F 29.89 in South 2.0 mph 8.0 mph 93 % 0.00 in 0 W/m2
23:55 53.1 °F 51.1 °F 29.89 in South 1.0 mph 8.0 mph 93 % 0.00 in 0 W/m2
Delerius-Weather
Compliments of Weather Underground - 2 mb

Data updates at regular intervals.